sensor_id;sensor_type;location;lat;lon;timestamp;temperature;humidity
57636;DHT22;43465;50.728;4.160;2023-05-14T00:01:52;13.50;99.90
57636;DHT22;43465;50.728;4.160;2023-05-14T00:04:18;13.50;99.90
57636;DHT22;43465;50.728;4.160;2023-05-14T00:06:45;13.50;99.90
57636;DHT22;43465;50.728;4.160;2023-05-14T00:09:11;13.60;99.90
57636;DHT22;43465;50.728;4.160;2023-05-14T00:11:37;13.60;99.90
57636;DHT22;43465;50.728;4.160;2023-05-14T00:14:03;13.60;99.90
57636;DHT22;43465;50.728;4.160;2023-05-14T00:16:29;13.60;99.90
57636;DHT22;43465;50.728;4.160;2023-05-14T00:18:54;13.50;99.90
57636;DHT22;43465;50.728;4.160;2023-05-14T00:21:20;13.40;99.90
57636;DHT22;43465;50.728;4.160;2023-05-14T00:23:45;13.40;99.90
57636;DHT22;43465;50.728;4.160;2023-05-14T00:26:12;13.50;99.90
57636;DHT22;43465;50.728;4.160;2023-05-14T00:28:37;13.50;99.90
57636;DHT22;43465;50.728;4.160;2023-05-14T00:31:03;13.50;99.90
57636;DHT22;43465;50.728;4.160;2023-05-14T00:33:29;13.50;99.90
57636;DHT22;43465;50.728;4.160;2023-05-14T00:35:54;13.50;99.90
57636;DHT22;43465;50.728;4.160;2023-05-14T00:38:20;13.50;99.90
57636;DHT22;43465;50.728;4.160;2023-05-14T00:40:48;13.50;99.90
57636;DHT22;43465;50.728;4.160;2023-05-14T00:43:20;13.50;99.90
57636;DHT22;43465;50.728;4.160;2023-05-14T00:45:48;13.50;99.90
57636;DHT22;43465;50.728;4.160;2023-05-14T00:48:14;13.40;99.90
57636;DHT22;43465;50.728;4.160;2023-05-14T00:50:41;13.40;99.90
57636;DHT22;43465;50.728;4.160;2023-05-14T00:53:06;13.60;99.90
57636;DHT22;43465;50.728;4.160;2023-05-14T00:55:39;13.60;99.90
57636;DHT22;43465;50.728;4.160;2023-05-14T00:58:10;13.60;99.90
57636;DHT22;43465;50.728;4.160;2023-05-14T01:00:36;13.50;99.90
57636;DHT22;43465;50.728;4.160;2023-05-14T01:03:03;13.50;99.90
57636;DHT22;43465;50.728;4.160;2023-05-14T01:05:38;13.40;99.90
57636;DHT22;43465;50.728;4.160;2023-05-14T01:08:22;13.40;99.90
57636;DHT22;43465;50.728;4.160;2023-05-14T01:10:52;13.50;99.90
57636;DHT22;43465;50.728;4.160;2023-05-14T01:13:29;13.40;99.90
57636;DHT22;43465;50.728;4.160;2023-05-14T01:15:58;13.40;99.90
57636;DHT22;43465;50.728;4.160;2023-05-14T01:18:27;13.50;99.90
57636;DHT22;43465;50.728;4.160;2023-05-14T01:20:53;13.50;99.90
57636;DHT22;43465;50.728;4.160;2023-05-14T01:23:19;13.50;99.90
57636;DHT22;43465;50.728;4.160;2023-05-14T01:25:45;13.50;99.90
57636;DHT22;43465;50.728;4.160;2023-05-14T01:28:19;13.40;99.90
57636;DHT22;43465;50.728;4.160;2023-05-14T01:30:57;13.40;99.90
57636;DHT22;43465;50.728;4.160;2023-05-14T01:33:26;13.40;99.90
57636;DHT22;43465;50.728;4.160;2023-05-14T01:35:53;13.40;99.90
57636;DHT22;43465;50.728;4.160;2023-05-14T01:38:20;13.40;99.90
57636;DHT22;43465;50.728;4.160;2023-05-14T01:40:48;13.40;99.90
57636;DHT22;43465;50.728;4.160;2023-05-14T01:43:15;13.40;99.90
57636;DHT22;43465;50.728;4.160;2023-05-14T01:45:42;13.40;99.90
57636;DHT22;43465;50.728;4.160;2023-05-14T01:48:08;13.50;99.90
57636;DHT22;43465;50.728;4.160;2023-05-14T01:50:34;13.50;99.90
57636;DHT22;43465;50.728;4.160;2023-05-14T01:53:00;13.50;99.90
57636;DHT22;43465;50.728;4.160;2023-05-14T01:55:25;13.40;99.90
57636;DHT22;43465;50.728;4.160;2023-05-14T01:57:51;13.40;99.90
57636;DHT22;43465;50.728;4.160;2023-05-14T02:00:18;13.50;99.90
57636;DHT22;43465;50.728;4.160;2023-05-14T02:02:44;13.40;99.90
57636;DHT22;43465;50.728;4.160;2023-05-14T02:05:11;13.40;99.90
57636;DHT22;43465;50.728;4.160;2023-05-14T02:07:37;13.40;99.90
57636;DHT22;43465;50.728;4.160;2023-05-14T02:10:03;13.40;99.90
57636;DHT22;43465;50.728;4.160;2023-05-14T02:12:29;13.40;99.90
57636;DHT22;43465;50.728;4.160;2023-05-14T02:14:54;13.40;99.90
57636;DHT22;43465;50.728;4.160;2023-05-14T02:17:20;13.40;99.90
57636;DHT22;43465;50.728;4.160;2023-05-14T02:19:46;13.40;99.90
57636;DHT22;43465;50.728;4.160;2023-05-14T02:22:12;13.40;99.90
57636;DHT22;43465;50.728;4.160;2023-05-14T02:24:38;13.30;99.90
57636;DHT22;43465;50.728;4.160;2023-05-14T02:27:04;13.30;99.90
57636;DHT22;43465;50.728;4.160;2023-05-14T02:29:30;13.40;99.90
57636;DHT22;43465;50.728;4.160;2023-05-14T02:31:56;13.40;99.90
57636;DHT22;43465;50.728;4.160;2023-05-14T02:34:22;13.40;99.90
57636;DHT22;43465;50.728;4.160;2023-05-14T02:36:48;13.40;99.90
57636;DHT22;43465;50.728;4.160;2023-05-14T02:39:13;13.40;99.90
57636;DHT22;43465;50.728;4.160;2023-05-14T02:41:39;13.40;99.90
57636;DHT22;43465;50.728;4.160;2023-05-14T02:44:05;13.30;99.90
57636;DHT22;43465;50.728;4.160;2023-05-14T02:46:31;13.30;99.90
57636;DHT22;43465;50.728;4.160;2023-05-14T02:48:57;13.30;99.90
57636;DHT22;43465;50.728;4.160;2023-05-14T02:51:22;13.20;99.90
57636;DHT22;43465;50.728;4.160;2023-05-14T02:53:48;13.30;99.90
57636;DHT22;43465;50.728;4.160;2023-05-14T02:56:14;13.30;99.90
57636;DHT22;43465;50.728;4.160;2023-05-14T02:58:40;13.40;99.90
57636;DHT22;43465;50.728;4.160;2023-05-14T03:01:06;13.50;99.90
57636;DHT22;43465;50.728;4.160;2023-05-14T03:03:32;13.50;99.90
57636;DHT22;43465;50.728;4.160;2023-05-14T03:05:58;13.50;99.90
57636;DHT22;43465;50.728;4.160;2023-05-14T03:08:24;13.50;99.90
57636;DHT22;43465;50.728;4.160;2023-05-14T03:10:50;13.40;99.90
57636;DHT22;43465;50.728;4.160;2023-05-14T03:13:15;13.40;99.90
57636;DHT22;43465;50.728;4.160;2023-05-14T03:15:44;13.40;99.90
57636;DHT22;43465;50.728;4.160;2023-05-14T03:18:09;13.50;99.90
57636;DHT22;43465;50.728;4.160;2023-05-14T03:20:35;13.50;99.90
57636;DHT22;43465;50.728;4.160;2023-05-14T03:23:01;13.50;99.90
57636;DHT22;43465;50.728;4.160;2023-05-14T03:25:26;13.40;99.90
57636;DHT22;43465;50.728;4.160;2023-05-14T03:27:52;13.40;99.90
57636;DHT22;43465;50.728;4.160;2023-05-14T03:30:18;13.40;99.90
57636;DHT22;43465;50.728;4.160;2023-05-14T03:32:44;13.50;99.90
57636;DHT22;43465;50.728;4.160;2023-05-14T03:35:09;13.50;99.90
57636;DHT22;43465;50.728;4.160;2023-05-14T03:37:35;13.50;99.90
57636;DHT22;43465;50.728;4.160;2023-05-14T03:40:01;13.50;99.90
57636;DHT22;43465;50.728;4.160;2023-05-14T03:42:26;13.50;99.90
57636;DHT22;43465;50.728;4.160;2023-05-14T03:44:52;13.50;99.90
57636;DHT22;43465;50.728;4.160;2023-05-14T03:47:18;13.50;99.90
57636;DHT22;43465;50.728;4.160;2023-05-14T03:49:43;13.40;99.90
57636;DHT22;43465;50.728;4.160;2023-05-14T03:52:09;13.50;99.90
57636;DHT22;43465;50.728;4.160;2023-05-14T03:54:35;13.50;99.90
57636;DHT22;43465;50.728;4.160;2023-05-14T03:57:00;13.50;99.90
57636;DHT22;43465;50.728;4.160;2023-05-14T03:59:26;13.50;99.90
57636;DHT22;43465;50.728;4.160;2023-05-14T04:01:54;13.50;99.90
57636;DHT22;43465;50.728;4.160;2023-05-14T04:04:20;13.50;99.90
57636;DHT22;43465;50.728;4.160;2023-05-14T04:06:46;13.50;99.90
57636;DHT22;43465;50.728;4.160;2023-05-14T04:09:11;13.50;99.90
57636;DHT22;43465;50.728;4.160;2023-05-14T04:11:37;13.50;99.90
57636;DHT22;43465;50.728;4.160;2023-05-14T04:14:03;13.50;99.90
57636;DHT22;43465;50.728;4.160;2023-05-14T04:16:31;13.50;99.90
57636;DHT22;43465;50.728;4.160;2023-05-14T04:18:57;13.60;99.90
57636;DHT22;43465;50.728;4.160;2023-05-14T04:21:22;13.60;99.90
57636;DHT22;43465;50.728;4.160;2023-05-14T04:23:48;13.70;99.90
57636;DHT22;43465;50.728;4.160;2023-05-14T04:26:15;13.60;99.90
57636;DHT22;43465;50.728;4.160;2023-05-14T04:28:40;13.60;99.90
57636;DHT22;43465;50.728;4.160;2023-05-14T04:31:06;13.70;99.90
57636;DHT22;43465;50.728;4.160;2023-05-14T04:33:32;13.70;99.90
57636;DHT22;43465;50.728;4.160;2023-05-14T04:35:57;13.70;99.90
57636;DHT22;43465;50.728;4.160;2023-05-14T04:38:23;13.60;99.90
57636;DHT22;43465;50.728;4.160;2023-05-14T04:40:48;13.60;99.90
57636;DHT22;43465;50.728;4.160;2023-05-14T04:43:14;13.70;99.90
57636;DHT22;43465;50.728;4.160;2023-05-14T04:45:41;13.70;99.90
57636;DHT22;43465;50.728;4.160;2023-05-14T04:48:07;13.70;99.90
57636;DHT22;43465;50.728;4.160;2023-05-14T04:50:33;13.70;99.90
57636;DHT22;43465;50.728;4.160;2023-05-14T04:52:59;13.80;99.90
57636;DHT22;43465;50.728;4.160;2023-05-14T04:55:25;13.80;99.90
57636;DHT22;43465;50.728;4.160;2023-05-14T04:57:50;13.70;99.90
57636;DHT22;43465;50.728;4.160;2023-05-14T05:00:16;13.80;99.90
57636;DHT22;43465;50.728;4.160;2023-05-14T05:02:42;13.80;99.90
57636;DHT22;43465;50.728;4.160;2023-05-14T05:05:08;13.70;99.90
57636;DHT22;43465;50.728;4.160;2023-05-14T05:07:34;13.70;99.90
57636;DHT22;43465;50.728;4.160;2023-05-14T05:10:00;13.70;99.90
57636;DHT22;43465;50.728;4.160;2023-05-14T05:12:26;13.70;99.90
57636;DHT22;43465;50.728;4.160;2023-05-14T05:14:55;13.60;99.90
57636;DHT22;43465;50.728;4.160;2023-05-14T05:17:21;13.60;99.90
57636;DHT22;43465;50.728;4.160;2023-05-14T05:19:47;13.60;99.90
57636;DHT22;43465;50.728;4.160;2023-05-14T05:22:13;13.60;99.90
57636;DHT22;43465;50.728;4.160;2023-05-14T05:24:39;13.60;99.90
57636;DHT22;43465;50.728;4.160;2023-05-14T05:27:04;13.60;99.90
57636;DHT22;43465;50.728;4.160;2023-05-14T05:29:30;13.60;99.90
57636;DHT22;43465;50.728;4.160;2023-05-14T05:31:56;13.60;99.90
57636;DHT22;43465;50.728;4.160;2023-05-14T05:34:21;13.50;99.90
57636;DHT22;43465;50.728;4.160;2023-05-14T05:36:47;13.60;99.90
57636;DHT22;43465;50.728;4.160;2023-05-14T05:39:13;13.60;99.90
57636;DHT22;43465;50.728;4.160;2023-05-14T05:41:38;13.60;99.90
57636;DHT22;43465;50.728;4.160;2023-05-14T05:44:05;13.60;99.90
57636;DHT22;43465;50.728;4.160;2023-05-14T05:46:30;13.50;99.90
57636;DHT22;43465;50.728;4.160;2023-05-14T05:48:56;13.50;99.90
57636;DHT22;43465;50.728;4.160;2023-05-14T05:51:21;13.50;99.90
57636;DHT22;43465;50.728;4.160;2023-05-14T05:53:47;13.50;99.90
57636;DHT22;43465;50.728;4.160;2023-05-14T05:56:13;13.50;99.90
57636;DHT22;43465;50.728;4.160;2023-05-14T05:58:39;13.60;99.90
57636;DHT22;43465;50.728;4.160;2023-05-14T06:01:04;13.60;99.90
57636;DHT22;43465;50.728;4.160;2023-05-14T06:03:31;13.60;99.90
57636;DHT22;43465;50.728;4.160;2023-05-14T06:05:56;13.60;99.90
57636;DHT22;43465;50.728;4.160;2023-05-14T06:08:22;13.60;99.90
57636;DHT22;43465;50.728;4.160;2023-05-14T06:10:47;13.60;99.90
57636;DHT22;43465;50.728;4.160;2023-05-14T06:13:13;13.50;99.90
57636;DHT22;43465;50.728;4.160;2023-05-14T06:15:39;13.50;99.90
57636;DHT22;43465;50.728;4.160;2023-05-14T06:18:04;13.50;99.90
57636;DHT22;43465;50.728;4.160;2023-05-14T06:20:30;13.50;99.90
57636;DHT22;43465;50.728;4.160;2023-05-14T06:22:56;13.50;99.90
57636;DHT22;43465;50.728;4.160;2023-05-14T06:25:21;13.50;99.90
57636;DHT22;43465;50.728;4.160;2023-05-14T06:27:47;13.50;99.90
57636;DHT22;43465;50.728;4.160;2023-05-14T06:30:13;13.50;99.90
57636;DHT22;43465;50.728;4.160;2023-05-14T06:32:39;13.50;99.90
57636;DHT22;43465;50.728;4.160;2023-05-14T06:35:05;13.60;99.90
57636;DHT22;43465;50.728;4.160;2023-05-14T06:37:31;13.60;99.90
57636;DHT22;43465;50.728;4.160;2023-05-14T06:39:56;13.60;99.90
57636;DHT22;43465;50.728;4.160;2023-05-14T06:42:22;13.70;99.90
57636;DHT22;43465;50.728;4.160;2023-05-14T06:44:48;13.70;99.90
57636;DHT22;43465;50.728;4.160;2023-05-14T06:47:13;13.70;99.90
57636;DHT22;43465;50.728;4.160;2023-05-14T06:49:39;13.60;99.90
57636;DHT22;43465;50.728;4.160;2023-05-14T06:52:05;13.60;99.90
57636;DHT22;43465;50.728;4.160;2023-05-14T06:54:31;13.60;99.90
57636;DHT22;43465;50.728;4.160;2023-05-14T06:56:56;13.50;99.90
57636;DHT22;43465;50.728;4.160;2023-05-14T06:59:22;13.50;99.90
57636;DHT22;43465;50.728;4.160;2023-05-14T07:01:48;13.40;99.90
57636;DHT22;43465;50.728;4.160;2023-05-14T07:04:14;13.50;99.90
57636;DHT22;43465;50.728;4.160;2023-05-14T07:06:40;13.50;99.90
57636;DHT22;43465;50.728;4.160;2023-05-14T07:09:05;13.50;99.90
57636;DHT22;43465;50.728;4.160;2023-05-14T07:11:32;13.50;99.90
57636;DHT22;43465;50.728;4.160;2023-05-14T07:13:58;13.40;99.90
57636;DHT22;43465;50.728;4.160;2023-05-14T07:16:24;13.30;99.90
57636;DHT22;43465;50.728;4.160;2023-05-14T07:18:49;13.30;99.90
57636;DHT22;43465;50.728;4.160;2023-05-14T07:21:15;13.30;99.90
57636;DHT22;43465;50.728;4.160;2023-05-14T07:23:41;13.40;99.90
57636;DHT22;43465;50.728;4.160;2023-05-14T07:26:07;13.30;99.90
57636;DHT22;43465;50.728;4.160;2023-05-14T07:28:33;13.30;99.90
57636;DHT22;43465;50.728;4.160;2023-05-14T07:30:59;13.40;99.90
57636;DHT22;43465;50.728;4.160;2023-05-14T07:33:25;13.40;99.90
57636;DHT22;43465;50.728;4.160;2023-05-14T07:35:51;13.50;99.90
57636;DHT22;43465;50.728;4.160;2023-05-14T07:38:19;13.60;99.90
57636;DHT22;43465;50.728;4.160;2023-05-14T07:40:45;13.60;99.90
57636;DHT22;43465;50.728;4.160;2023-05-14T07:43:11;13.60;99.90
57636;DHT22;43465;50.728;4.160;2023-05-14T07:45:37;13.70;99.90
57636;DHT22;43465;50.728;4.160;2023-05-14T07:48:05;13.70;99.90
57636;DHT22;43465;50.728;4.160;2023-05-14T07:50:31;13.80;99.90
57636;DHT22;43465;50.728;4.160;2023-05-14T07:52:57;13.80;99.90
57636;DHT22;43465;50.728;4.160;2023-05-14T07:55:22;13.90;99.90
57636;DHT22;43465;50.728;4.160;2023-05-14T07:57:48;13.90;99.90
57636;DHT22;43465;50.728;4.160;2023-05-14T08:00:14;13.90;99.90
57636;DHT22;43465;50.728;4.160;2023-05-14T08:02:41;14.00;99.90
57636;DHT22;43465;50.728;4.160;2023-05-14T08:05:07;14.00;99.90
57636;DHT22;43465;50.728;4.160;2023-05-14T08:07:34;13.90;99.90
57636;DHT22;43465;50.728;4.160;2023-05-14T08:10:00;14.00;99.90
57636;DHT22;43465;50.728;4.160;2023-05-14T08:12:25;14.10;99.90
57636;DHT22;43465;50.728;4.160;2023-05-14T08:14:51;14.20;99.90
57636;DHT22;43465;50.728;4.160;2023-05-14T08:17:17;14.10;99.90
57636;DHT22;43465;50.728;4.160;2023-05-14T08:19:43;14.20;99.90
57636;DHT22;43465;50.728;4.160;2023-05-14T08:22:09;14.30;99.90
57636;DHT22;43465;50.728;4.160;2023-05-14T08:24:34;14.40;99.90
57636;DHT22;43465;50.728;4.160;2023-05-14T08:27:00;14.50;99.90
57636;DHT22;43465;50.728;4.160;2023-05-14T08:29:26;14.50;99.90
57636;DHT22;43465;50.728;4.160;2023-05-14T08:31:52;14.50;99.90
57636;DHT22;43465;50.728;4.160;2023-05-14T08:34:18;14.50;99.90
57636;DHT22;43465;50.728;4.160;2023-05-14T08:36:43;14.50;99.90
57636;DHT22;43465;50.728;4.160;2023-05-14T08:39:09;14.50;99.90
57636;DHT22;43465;50.728;4.160;2023-05-14T08:41:35;14.50;99.90
57636;DHT22;43465;50.728;4.160;2023-05-14T08:46:31;14.60;99.90
57636;DHT22;43465;50.728;4.160;2023-05-14T08:49:02;14.70;99.90
57636;DHT22;43465;50.728;4.160;2023-05-14T08:51:29;14.80;99.90
57636;DHT22;43465;50.728;4.160;2023-05-14T08:53:58;15.00;99.90
57636;DHT22;43465;50.728;4.160;2023-05-14T08:56:26;15.00;99.90
57636;DHT22;43465;50.728;4.160;2023-05-14T08:58:52;15.00;99.90
57636;DHT22;43465;50.728;4.160;2023-05-14T09:01:18;15.10;99.90
57636;DHT22;43465;50.728;4.160;2023-05-14T09:03:45;15.20;99.90
57636;DHT22;43465;50.728;4.160;2023-05-14T09:06:13;15.20;99.90
57636;DHT22;43465;50.728;4.160;2023-05-14T09:08:40;15.20;99.90
57636;DHT22;43465;50.728;4.160;2023-05-14T09:11:05;15.40;99.90
57636;DHT22;43465;50.728;4.160;2023-05-14T09:13:31;15.40;99.90
57636;DHT22;43465;50.728;4.160;2023-05-14T09:15:57;15.50;99.90
57636;DHT22;43465;50.728;4.160;2023-05-14T09:18:24;15.40;99.90
57636;DHT22;43465;50.728;4.160;2023-05-14T09:20:50;15.40;99.90
57636;DHT22;43465;50.728;4.160;2023-05-14T09:23:16;15.50;99.90
57636;DHT22;43465;50.728;4.160;2023-05-14T09:25:42;15.60;99.90
57636;DHT22;43465;50.728;4.160;2023-05-14T09:28:08;15.70;99.90
57636;DHT22;43465;50.728;4.160;2023-05-14T09:30:34;15.80;99.90
57636;DHT22;43465;50.728;4.160;2023-05-14T09:33:01;15.80;99.90
57636;DHT22;43465;50.728;4.160;2023-05-14T09:35:28;15.90;99.90
57636;DHT22;43465;50.728;4.160;2023-05-14T09:37:54;15.90;99.90
57636;DHT22;43465;50.728;4.160;2023-05-14T09:40:21;16.10;99.90
57636;DHT22;43465;50.728;4.160;2023-05-14T09:42:47;16.20;99.90
57636;DHT22;43465;50.728;4.160;2023-05-14T09:45:14;16.20;99.90
57636;DHT22;43465;50.728;4.160;2023-05-14T09:47:40;16.30;99.90
57636;DHT22;43465;50.728;4.160;2023-05-14T09:50:07;16.30;99.90
57636;DHT22;43465;50.728;4.160;2023-05-14T09:52:33;16.40;99.90
57636;DHT22;43465;50.728;4.160;2023-05-14T09:55:00;16.40;99.90
57636;DHT22;43465;50.728;4.160;2023-05-14T09:57:26;16.50;99.90
57636;DHT22;43465;50.728;4.160;2023-05-14T09:59:53;16.50;99.90
57636;DHT22;43465;50.728;4.160;2023-05-14T10:02:33;16.70;99.90
57636;DHT22;43465;50.728;4.160;2023-05-14T10:05:03;16.90;99.90
57636;DHT22;43465;50.728;4.160;2023-05-14T10:07:34;16.90;99.90
57636;DHT22;43465;50.728;4.160;2023-05-14T10:10:02;17.00;99.90
57636;DHT22;43465;50.728;4.160;2023-05-14T10:12:33;17.10;99.90
57636;DHT22;43465;50.728;4.160;2023-05-14T10:15:05;17.00;99.90
57636;DHT22;43465;50.728;4.160;2023-05-14T10:17:33;17.00;99.90
57636;DHT22;43465;50.728;4.160;2023-05-14T10:20:01;16.90;99.90
57636;DHT22;43465;50.728;4.160;2023-05-14T10:22:33;16.80;99.90
57636;DHT22;43465;50.728;4.160;2023-05-14T10:25:00;16.90;99.90
57636;DHT22;43465;50.728;4.160;2023-05-14T10:27:26;17.00;99.90
57636;DHT22;43465;50.728;4.160;2023-05-14T10:29:53;17.20;99.90
57636;DHT22;43465;50.728;4.160;2023-05-14T10:32:23;17.30;99.90
57636;DHT22;43465;50.728;4.160;2023-05-14T10:34:51;17.50;99.90
57636;DHT22;43465;50.728;4.160;2023-05-14T10:37:24;17.60;99.90
57636;DHT22;43465;50.728;4.160;2023-05-14T10:40:02;17.70;99.90
57636;DHT22;43465;50.728;4.160;2023-05-14T10:42:38;17.70;99.90
57636;DHT22;43465;50.728;4.160;2023-05-14T10:45:10;17.70;99.90
57636;DHT22;43465;50.728;4.160;2023-05-14T10:47:37;17.60;99.90
57636;DHT22;43465;50.728;4.160;2023-05-14T10:50:05;17.50;99.90
57636;DHT22;43465;50.728;4.160;2023-05-14T10:52:32;17.50;99.90
57636;DHT22;43465;50.728;4.160;2023-05-14T10:55:01;17.60;99.90
57636;DHT22;43465;50.728;4.160;2023-05-14T10:57:29;17.60;99.90
57636;DHT22;43465;50.728;4.160;2023-05-14T10:59:59;17.70;99.90
57636;DHT22;43465;50.728;4.160;2023-05-14T11:02:35;17.60;99.90
57636;DHT22;43465;50.728;4.160;2023-05-14T11:05:10;17.80;99.90
57636;DHT22;43465;50.728;4.160;2023-05-14T11:07:48;17.90;99.90
57636;DHT22;43465;50.728;4.160;2023-05-14T11:10:19;18.00;99.90
57636;DHT22;43465;50.728;4.160;2023-05-14T11:12:50;18.00;99.90
57636;DHT22;43465;50.728;4.160;2023-05-14T11:15:18;17.90;99.90
57636;DHT22;43465;50.728;4.160;2023-05-14T11:17:45;18.00;99.90
57636;DHT22;43465;50.728;4.160;2023-05-14T11:20:12;18.00;99.90
57636;DHT22;43465;50.728;4.160;2023-05-14T11:22:40;18.20;99.90
57636;DHT22;43465;50.728;4.160;2023-05-14T11:25:06;18.40;99.90
57636;DHT22;43465;50.728;4.160;2023-05-14T11:27:34;18.20;99.90
57636;DHT22;43465;50.728;4.160;2023-05-14T11:30:00;18.10;99.90
57636;DHT22;43465;50.728;4.160;2023-05-14T11:32:26;18.10;99.90
57636;DHT22;43465;50.728;4.160;2023-05-14T11:34:52;18.00;99.90
57636;DHT22;43465;50.728;4.160;2023-05-14T11:37:18;18.00;99.90
57636;DHT22;43465;50.728;4.160;2023-05-14T11:39:49;18.00;99.90
57636;DHT22;43465;50.728;4.160;2023-05-14T11:42:15;18.10;99.90
57636;DHT22;43465;50.728;4.160;2023-05-14T11:44:47;18.20;99.90
57636;DHT22;43465;50.728;4.160;2023-05-14T11:47:14;18.40;99.90
57636;DHT22;43465;50.728;4.160;2023-05-14T11:49:40;18.50;99.90
57636;DHT22;43465;50.728;4.160;2023-05-14T11:52:08;18.50;99.90
57636;DHT22;43465;50.728;4.160;2023-05-14T11:54:39;18.60;99.90
57636;DHT22;43465;50.728;4.160;2023-05-14T11:57:27;18.50;99.90
57636;DHT22;43465;50.728;4.160;2023-05-14T11:59:55;18.70;99.90
57636;DHT22;43465;50.728;4.160;2023-05-14T12:02:22;18.70;99.90
57636;DHT22;43465;50.728;4.160;2023-05-14T12:04:51;18.80;99.90
57636;DHT22;43465;50.728;4.160;2023-05-14T12:07:17;18.90;99.90
57636;DHT22;43465;50.728;4.160;2023-05-14T12:09:48;19.00;99.90
57636;DHT22;43465;50.728;4.160;2023-05-14T12:12:16;19.00;99.90
57636;DHT22;43465;50.728;4.160;2023-05-14T12:14:43;19.00;99.90
57636;DHT22;43465;50.728;4.160;2023-05-14T12:17:22;19.00;99.90
57636;DHT22;43465;50.728;4.160;2023-05-14T12:19:49;19.10;99.90
57636;DHT22;43465;50.728;4.160;2023-05-14T12:22:22;19.10;99.90
57636;DHT22;43465;50.728;4.160;2023-05-14T12:24:54;19.40;99.90
57636;DHT22;43465;50.728;4.160;2023-05-14T12:27:22;19.40;99.90
57636;DHT22;43465;50.728;4.160;2023-05-14T12:29:49;19.30;99.90
57636;DHT22;43465;50.728;4.160;2023-05-14T12:32:18;19.60;99.90
57636;DHT22;43465;50.728;4.160;2023-05-14T12:34:44;19.60;99.90
57636;DHT22;43465;50.728;4.160;2023-05-14T12:37:10;19.70;99.90
57636;DHT22;43465;50.728;4.160;2023-05-14T12:39:35;19.80;99.90
57636;DHT22;43465;50.728;4.160;2023-05-14T12:42:01;19.90;99.90
57636;DHT22;43465;50.728;4.160;2023-05-14T12:44:27;19.80;99.90
57636;DHT22;43465;50.728;4.160;2023-05-14T12:46:53;19.70;99.90
57636;DHT22;43465;50.728;4.160;2023-05-14T12:49:19;19.90;99.90
57636;DHT22;43465;50.728;4.160;2023-05-14T12:51:44;20.00;99.90
57636;DHT22;43465;50.728;4.160;2023-05-14T12:54:11;20.00;99.90
57636;DHT22;43465;50.728;4.160;2023-05-14T12:56:37;19.90;99.90
57636;DHT22;43465;50.728;4.160;2023-05-14T12:59:03;19.90;99.90
57636;DHT22;43465;50.728;4.160;2023-05-14T13:01:29;20.00;99.90
57636;DHT22;43465;50.728;4.160;2023-05-14T13:03:55;20.20;99.90
57636;DHT22;43465;50.728;4.160;2023-05-14T13:06:21;20.30;99.90
57636;DHT22;43465;50.728;4.160;2023-05-14T13:08:46;20.50;99.90
57636;DHT22;43465;50.728;4.160;2023-05-14T13:11:13;20.60;99.90
57636;DHT22;43465;50.728;4.160;2023-05-14T13:13:39;20.70;99.90
57636;DHT22;43465;50.728;4.160;2023-05-14T13:16:05;20.80;99.90
57636;DHT22;43465;50.728;4.160;2023-05-14T13:18:30;20.80;99.90
57636;DHT22;43465;50.728;4.160;2023-05-14T13:20:56;21.00;99.90
57636;DHT22;43465;50.728;4.160;2023-05-14T13:23:22;21.00;99.90
57636;DHT22;43465;50.728;4.160;2023-05-14T13:25:47;21.00;99.90
57636;DHT22;43465;50.728;4.160;2023-05-14T13:28:13;21.00;99.90
57636;DHT22;43465;50.728;4.160;2023-05-14T13:30:39;21.00;99.90
57636;DHT22;43465;50.728;4.160;2023-05-14T13:33:05;21.20;99.90
57636;DHT22;43465;50.728;4.160;2023-05-14T13:35:30;21.20;99.90
57636;DHT22;43465;50.728;4.160;2023-05-14T13:37:57;21.30;99.90
57636;DHT22;43465;50.728;4.160;2023-05-14T13:40:22;21.20;99.90
57636;DHT22;43465;50.728;4.160;2023-05-14T13:42:48;21.10;99.90
57636;DHT22;43465;50.728;4.160;2023-05-14T13:45:14;21.00;99.90
57636;DHT22;43465;50.728;4.160;2023-05-14T13:47:39;21.00;99.90
57636;DHT22;43465;50.728;4.160;2023-05-14T13:50:06;21.20;99.90
57636;DHT22;43465;50.728;4.160;2023-05-14T13:52:31;21.40;99.90
57636;DHT22;43465;50.728;4.160;2023-05-14T13:54:57;21.50;99.90
57636;DHT22;43465;50.728;4.160;2023-05-14T13:57:22;21.60;99.90
57636;DHT22;43465;50.728;4.160;2023-05-14T13:59:48;21.70;99.90
57636;DHT22;43465;50.728;4.160;2023-05-14T14:02:14;21.80;99.90
57636;DHT22;43465;50.728;4.160;2023-05-14T14:04:40;21.80;99.90
57636;DHT22;43465;50.728;4.160;2023-05-14T14:07:05;21.90;99.90
57636;DHT22;43465;50.728;4.160;2023-05-14T14:09:31;22.00;99.90
57636;DHT22;43465;50.728;4.160;2023-05-14T14:12:02;22.20;99.90
57636;DHT22;43465;50.728;4.160;2023-05-14T14:14:28;22.60;99.90
57636;DHT22;43465;50.728;4.160;2023-05-14T14:16:54;22.70;99.90
57636;DHT22;43465;50.728;4.160;2023-05-14T14:19:19;23.10;99.90
57636;DHT22;43465;50.728;4.160;2023-05-14T14:21:45;23.40;99.90
57636;DHT22;43465;50.728;4.160;2023-05-14T14:24:11;23.70;99.90
57636;DHT22;43465;50.728;4.160;2023-05-14T14:26:36;23.90;99.90
57636;DHT22;43465;50.728;4.160;2023-05-14T14:29:02;24.10;99.90
57636;DHT22;43465;50.728;4.160;2023-05-14T14:31:28;24.20;99.90
57636;DHT22;43465;50.728;4.160;2023-05-14T14:33:53;24.20;99.90
57636;DHT22;43465;50.728;4.160;2023-05-14T14:36:19;24.40;99.90
57636;DHT22;43465;50.728;4.160;2023-05-14T14:38:45;24.50;99.90
57636;DHT22;43465;50.728;4.160;2023-05-14T14:41:10;24.70;99.90
57636;DHT22;43465;50.728;4.160;2023-05-14T14:43:37;24.80;99.90
57636;DHT22;43465;50.728;4.160;2023-05-14T14:46:04;25.00;98.90
57636;DHT22;43465;50.728;4.160;2023-05-14T14:48:32;25.20;98.20
57636;DHT22;43465;50.728;4.160;2023-05-14T14:50:59;25.10;97.40
57636;DHT22;43465;50.728;4.160;2023-05-14T14:53:26;25.00;96.60
57636;DHT22;43465;50.728;4.160;2023-05-14T14:55:52;24.60;97.90
57636;DHT22;43465;50.728;4.160;2023-05-14T14:58:18;24.50;97.10
57636;DHT22;43465;50.728;4.160;2023-05-14T15:00:44;24.40;96.90
57636;DHT22;43465;50.728;4.160;2023-05-14T15:03:10;24.20;97.30
57636;DHT22;43465;50.728;4.160;2023-05-14T15:05:36;24.20;97.90
57636;DHT22;43465;50.728;4.160;2023-05-14T15:08:02;24.10;97.60
57636;DHT22;43465;50.728;4.160;2023-05-14T15:10:29;23.80;97.60
57636;DHT22;43465;50.728;4.160;2023-05-14T15:12:58;23.60;97.60
57636;DHT22;43465;50.728;4.160;2023-05-14T15:15:24;23.60;98.80
57636;DHT22;43465;50.728;4.160;2023-05-14T15:17:50;23.50;98.60
57636;DHT22;43465;50.728;4.160;2023-05-14T15:20:16;23.40;98.80
57636;DHT22;43465;50.728;4.160;2023-05-14T15:22:42;23.30;98.60
57636;DHT22;43465;50.728;4.160;2023-05-14T15:25:08;23.10;97.70
57636;DHT22;43465;50.728;4.160;2023-05-14T15:27:34;23.00;98.20
57636;DHT22;43465;50.728;4.160;2023-05-14T15:30:01;23.00;98.90